sensor_id;sensor_type;location;lat;lon;timestamp;P1;durP1;ratioP1;P2;durP2;ratioP2
46222;SDS011;31943;51.410;7.564;2023-11-22T00:00:02;9.40;;;7.38;;
46222;SDS011;31943;51.410;7.564;2023-11-22T00:02:28;8.80;;;7.78;;
46222;SDS011;31943;51.410;7.564;2023-11-22T00:04:54;8.70;;;7.15;;
46222;SDS011;31943;51.410;7.564;2023-11-22T00:07:20;9.82;;;7.35;;
46222;SDS011;31943;51.410;7.564;2023-11-22T00:09:47;10.55;;;7.72;;
46222;SDS011;31943;51.410;7.564;2023-11-22T00:12:13;9.32;;;7.32;;
46222;SDS011;31943;51.410;7.564;2023-11-22T00:14:38;8.60;;;7.18;;
46222;SDS011;31943;51.410;7.564;2023-11-22T00:17:04;9.05;;;7.47;;
46222;SDS011;31943;51.410;7.564;2023-11-22T00:19:30;8.68;;;6.68;;
46222;SDS011;31943;51.410;7.564;2023-11-22T00:21:56;8.80;;;7.30;;
46222;SDS011;31943;51.410;7.564;2023-11-22T00:24:22;11.57;;;7.80;;
46222;SDS011;31943;51.410;7.564;2023-11-22T00:26:49;7.93;;;6.40;;
46222;SDS011;31943;51.410;7.564;2023-11-22T00:29:15;8.70;;;7.10;;
46222;SDS011;31943;51.410;7.564;2023-11-22T00:31:41;8.77;;;6.78;;
46222;SDS011;31943;51.410;7.564;2023-11-22T00:34:07;9.25;;;8.05;;
46222;SDS011;31943;51.410;7.564;2023-11-22T00:36:33;8.93;;;7.28;;
46222;SDS011;31943;51.410;7.564;2023-11-22T00:38:59;10.20;;;7.47;;
46222;SDS011;31943;51.410;7.564;2023-11-22T00:41:29;11.55;;;6.85;;
46222;SDS011;31943;51.410;7.564;2023-11-22T00:43:57;8.77;;;6.93;;
46222;SDS011;31943;51.410;7.564;2023-11-22T00:46:22;8.07;;;6.82;;
46222;SDS011;31943;51.410;7.564;2023-11-22T00:48:48;8.55;;;7.25;;
46222;SDS011;31943;51.410;7.564;2023-11-22T00:51:14;10.40;;;7.03;;
46222;SDS011;31943;51.410;7.564;2023-11-22T00:53:40;9.23;;;7.22;;
46222;SDS011;31943;51.410;7.564;2023-11-22T00:56:07;8.02;;;7.22;;
46222;SDS011;31943;51.410;7.564;2023-11-22T00:58:33;10.05;;;7.22;;
46222;SDS011;31943;51.410;7.564;2023-11-22T01:01:00;8.30;;;6.38;;
46222;SDS011;31943;51.410;7.564;2023-11-22T01:03:26;8.70;;;7.43;;
46222;SDS011;31943;51.410;7.564;2023-11-22T01:05:51;7.68;;;6.88;;
46222;SDS011;31943;51.410;7.564;2023-11-22T01:08:17;9.85;;;7.65;;
46222;SDS011;31943;51.410;7.564;2023-11-22T01:10:43;9.23;;;8.10;;
46222;SDS011;31943;51.410;7.564;2023-11-22T01:13:08;9.43;;;8.05;;
46222;SDS011;31943;51.410;7.564;2023-11-22T01:15:34;8.77;;;7.88;;
46222;SDS011;31943;51.410;7.564;2023-11-22T01:18:02;9.25;;;7.72;;
46222;SDS011;31943;51.410;7.564;2023-11-22T01:20:28;10.68;;;8.38;;
46222;SDS011;31943;51.410;7.564;2023-11-22T01:22:53;11.27;;;8.77;;
46222;SDS011;31943;51.410;7.564;2023-11-22T01:25:19;10.25;;;8.43;;
46222;SDS011;31943;51.410;7.564;2023-11-22T01:27:46;9.98;;;8.93;;
46222;SDS011;31943;51.410;7.564;2023-11-22T01:30:12;11.82;;;9.68;;
46222;SDS011;31943;51.410;7.564;2023-11-22T01:32:37;9.85;;;8.77;;
46222;SDS011;31943;51.410;7.564;2023-11-22T01:35:06;10.45;;;9.13;;
46222;SDS011;31943;51.410;7.564;2023-11-22T01:37:32;11.52;;;9.77;;
46222;SDS011;31943;51.410;7.564;2023-11-22T01:39:58;12.15;;;9.85;;
46222;SDS011;31943;51.410;7.564;2023-11-22T01:42:24;11.13;;;9.77;;
46222;SDS011;31943;51.410;7.564;2023-11-22T01:44:50;10.98;;;9.05;;
46222;SDS011;31943;51.410;7.564;2023-11-22T01:47:15;12.70;;;9.70;;
46222;SDS011;31943;51.410;7.564;2023-11-22T01:49:42;12.35;;;9.80;;
46222;SDS011;31943;51.410;7.564;2023-11-22T01:52:09;12.73;;;10.23;;
46222;SDS011;31943;51.410;7.564;2023-11-22T01:54:35;11.80;;;9.10;;
46222;SDS011;31943;51.410;7.564;2023-11-22T01:57:00;12.88;;;9.45;;
46222;SDS011;31943;51.410;7.564;2023-11-22T01:59:29;14.75;;;9.88;;
46222;SDS011;31943;51.410;7.564;2023-11-22T02:01:55;11.30;;;9.05;;
46222;SDS011;31943;51.410;7.564;2023-11-22T02:04:20;9.93;;;8.43;;
46222;SDS011;31943;51.410;7.564;2023-11-22T02:06:46;10.05;;;8.52;;
46222;SDS011;31943;51.410;7.564;2023-11-22T02:09:13;10.52;;;9.05;;
46222;SDS011;31943;51.410;7.564;2023-11-22T02:11:39;9.57;;;8.32;;
46222;SDS011;31943;51.410;7.564;2023-11-22T02:14:05;9.95;;;8.50;;
46222;SDS011;31943;51.410;7.564;2023-11-22T02:16:31;10.13;;;8.55;;
46222;SDS011;31943;51.410;7.564;2023-11-22T02:18:57;9.52;;;8.18;;
46222;SDS011;31943;51.410;7.564;2023-11-22T02:21:24;8.93;;;8.02;;
46222;SDS011;31943;51.410;7.564;2023-11-22T02:23:51;12.80;;;7.97;;
46222;SDS011;31943;51.410;7.564;2023-11-22T02:26:17;9.55;;;7.20;;
46222;SDS011;31943;51.410;7.564;2023-11-22T02:28:43;8.85;;;6.90;;
46222;SDS011;31943;51.410;7.564;2023-11-22T02:31:08;8.20;;;6.47;;
46222;SDS011;31943;51.410;7.564;2023-11-22T02:33:34;9.25;;;6.47;;
46222;SDS011;31943;51.410;7.564;2023-11-22T02:36:00;7.13;;;6.10;;
46222;SDS011;31943;51.410;7.564;2023-11-22T02:38:26;7.38;;;6.22;;
46222;SDS011;31943;51.410;7.564;2023-11-22T02:40:54;8.02;;;5.55;;
46222;SDS011;31943;51.410;7.564;2023-11-22T02:43:20;8.95;;;5.60;;
46222;SDS011;31943;51.410;7.564;2023-11-22T02:45:45;7.53;;;4.97;;
46222;SDS011;31943;51.410;7.564;2023-11-22T02:48:11;11.73;;;5.82;;
46222;SDS011;31943;51.410;7.564;2023-11-22T02:50:37;6.05;;;5.38;;
46222;SDS011;31943;51.410;7.564;2023-11-22T02:53:04;6.30;;;5.18;;
46222;SDS011;31943;51.410;7.564;2023-11-22T02:55:31;7.60;;;5.05;;
46222;SDS011;31943;51.410;7.564;2023-11-22T02:57:58;6.30;;;4.88;;
46222;SDS011;31943;51.410;7.564;2023-11-22T03:00:24;5.82;;;4.80;;
46222;SDS011;31943;51.410;7.564;2023-11-22T03:02:49;6.03;;;5.30;;
46222;SDS011;31943;51.410;7.564;2023-11-22T03:05:15;5.60;;;4.53;;
46222;SDS011;31943;51.410;7.564;2023-11-22T03:07:41;7.47;;;4.80;;
46222;SDS011;31943;51.410;7.564;2023-11-22T03:10:07;8.38;;;5.05;;
46222;SDS011;31943;51.410;7.564;2023-11-22T03:12:34;5.50;;;4.38;;
46222;SDS011;31943;51.410;7.564;2023-11-22T03:15:02;5.88;;;4.53;;
46222;SDS011;31943;51.410;7.564;2023-11-22T03:17:29;5.88;;;4.82;;
46222;SDS011;31943;51.410;7.564;2023-11-22T03:19:55;6.43;;;4.80;;
46222;SDS011;31943;51.410;7.564;2023-11-22T03:22:23;6.43;;;4.68;;
46222;SDS011;31943;51.410;7.564;2023-11-22T03:24:49;5.40;;;4.20;;
46222;SDS011;31943;51.410;7.564;2023-11-22T03:27:15;6.93;;;5.28;;
46222;SDS011;31943;51.410;7.564;2023-11-22T03:29:41;5.25;;;4.57;;
46222;SDS011;31943;51.410;7.564;2023-11-22T03:32:08;4.63;;;4.15;;
46222;SDS011;31943;51.410;7.564;2023-11-22T03:34:34;7.18;;;4.00;;
46222;SDS011;31943;51.410;7.564;2023-11-22T03:37:00;4.53;;;3.88;;
46222;SDS011;31943;51.410;7.564;2023-11-22T03:39:26;4.88;;;3.92;;
46222;SDS011;31943;51.410;7.564;2023-11-22T03:41:52;9.77;;;4.68;;
46222;SDS011;31943;51.410;7.564;2023-11-22T03:44:17;6.47;;;4.28;;
46222;SDS011;31943;51.410;7.564;2023-11-22T03:46:43;5.68;;;3.97;;
46222;SDS011;31943;51.410;7.564;2023-11-22T03:49:10;6.55;;;3.78;;
46222;SDS011;31943;51.410;7.564;2023-11-22T03:51:36;5.13;;;3.90;;
46222;SDS011;31943;51.410;7.564;2023-11-22T03:54:04;5.82;;;3.60;;
46222;SDS011;31943;51.410;7.564;2023-11-22T03:56:31;4.50;;;3.72;;
46222;SDS011;31943;51.410;7.564;2023-11-22T03:58:57;4.82;;;3.47;;
46222;SDS011;31943;51.410;7.564;2023-11-22T04:01:22;6.18;;;3.42;;
46222;SDS011;31943;51.410;7.564;2023-11-22T04:03:48;5.22;;;3.50;;
46222;SDS011;31943;51.410;7.564;2023-11-22T04:06:16;4.50;;;3.78;;
46222;SDS011;31943;51.410;7.564;2023-11-22T04:08:43;4.60;;;3.83;;
46222;SDS011;31943;51.410;7.564;2023-11-22T04:11:18;4.22;;;3.63;;
46222;SDS011;31943;51.410;7.564;2023-11-22T04:13:43;5.60;;;4.10;;
46222;SDS011;31943;51.410;7.564;2023-11-22T04:16:09;5.28;;;3.40;;
46222;SDS011;31943;51.410;7.564;2023-11-22T04:18:35;4.85;;;3.75;;
46222;SDS011;31943;51.410;7.564;2023-11-22T04:21:02;4.60;;;3.88;;
46222;SDS011;31943;51.410;7.564;2023-11-22T04:23:29;4.32;;;3.20;;
46222;SDS011;31943;51.410;7.564;2023-11-22T04:25:56;4.07;;;3.33;;
46222;SDS011;31943;51.410;7.564;2023-11-22T04:28:21;5.07;;;3.70;;
46222;SDS011;31943;51.410;7.564;2023-11-22T04:30:47;6.53;;;3.95;;
46222;SDS011;31943;51.410;7.564;2023-11-22T04:33:13;4.65;;;3.30;;
46222;SDS011;31943;51.410;7.564;2023-11-22T04:35:39;5.00;;;3.30;;
46222;SDS011;31943;51.410;7.564;2023-11-22T04:38:04;6.70;;;3.25;;
46222;SDS011;31943;51.410;7.564;2023-11-22T04:40:31;7.55;;;3.67;;
46222;SDS011;31943;51.410;7.564;2023-11-22T04:42:57;4.97;;;3.22;;
46222;SDS011;31943;51.410;7.564;2023-11-22T04:45:23;3.95;;;2.85;;
46222;SDS011;31943;51.410;7.564;2023-11-22T04:47:49;5.05;;;3.53;;
46222;SDS011;31943;51.410;7.564;2023-11-22T04:50:15;4.30;;;3.25;;
46222;SDS011;31943;51.410;7.564;2023-11-22T04:52:40;3.67;;;3.20;;
46222;SDS011;31943;51.410;7.564;2023-11-22T04:55:06;5.25;;;3.55;;
46222;SDS011;31943;51.410;7.564;2023-11-22T04:57:34;5.15;;;3.70;;
46222;SDS011;31943;51.410;7.564;2023-11-22T04:59:59;6.07;;;3.60;;
46222;SDS011;31943;51.410;7.564;2023-11-22T05:02:26;6.03;;;3.83;;
46222;SDS011;31943;51.410;7.564;2023-11-22T05:04:53;7.45;;;4.05;;
46222;SDS011;31943;51.410;7.564;2023-11-22T05:07:21;5.07;;;3.75;;
46222;SDS011;31943;51.410;7.564;2023-11-22T05:09:46;4.97;;;3.65;;
46222;SDS011;31943;51.410;7.564;2023-11-22T05:12:12;6.25;;;3.45;;
46222;SDS011;31943;51.410;7.564;2023-11-22T05:14:39;4.00;;;3.42;;
46222;SDS011;31943;51.410;7.564;2023-11-22T05:17:05;6.82;;;3.78;;
46222;SDS011;31943;51.410;7.564;2023-11-22T05:19:31;4.38;;;3.50;;
46222;SDS011;31943;51.410;7.564;2023-11-22T05:21:57;4.53;;;3.58;;
46222;SDS011;31943;51.410;7.564;2023-11-22T05:24:23;5.13;;;3.40;;
46222;SDS011;31943;51.410;7.564;2023-11-22T05:26:49;5.18;;;3.33;;
46222;SDS011;31943;51.410;7.564;2023-11-22T05:29:14;5.22;;;3.88;;
46222;SDS011;31943;51.410;7.564;2023-11-22T05:31:42;6.32;;;3.78;;
46222;SDS011;31943;51.410;7.564;2023-11-22T05:34:08;6.00;;;3.53;;
46222;SDS011;31943;51.410;7.564;2023-11-22T05:36:34;7.35;;;3.25;;
46222;SDS011;31943;51.410;7.564;2023-11-22T05:38:59;4.60;;;3.60;;
46222;SDS011;31943;51.410;7.564;2023-11-22T05:41:26;6.35;;;4.20;;
46222;SDS011;31943;51.410;7.564;2023-11-22T05:43:53;5.60;;;3.72;;
46222;SDS011;31943;51.410;7.564;2023-11-22T05:46:19;5.13;;;4.07;;
46222;SDS011;31943;51.410;7.564;2023-11-22T05:48:46;6.03;;;3.60;;
46222;SDS011;31943;51.410;7.564;2023-11-22T05:51:12;5.72;;;3.35;;
46222;SDS011;31943;51.410;7.564;2023-11-22T05:53:39;11.68;;;4.55;;
46222;SDS011;31943;51.410;7.564;2023-11-22T05:56:05;5.30;;;3.60;;
46222;SDS011;31943;51.410;7.564;2023-11-22T05:58:31;4.97;;;3.75;;
46222;SDS011;31943;51.410;7.564;2023-11-22T06:00:56;5.07;;;3.83;;
46222;SDS011;31943;51.410;7.564;2023-11-22T06:03:22;5.47;;;3.60;;
46222;SDS011;31943;51.410;7.564;2023-11-22T06:05:50;5.90;;;3.80;;
46222;SDS011;31943;51.410;7.564;2023-11-22T06:08:17;4.50;;;3.70;;
46222;SDS011;31943;51.410;7.564;2023-11-22T06:10:42;8.18;;;4.18;;
46222;SDS011;31943;51.410;7.564;2023-11-22T06:13:09;4.60;;;3.83;;
46222;SDS011;31943;51.410;7.564;2023-11-22T06:15:35;6.15;;;4.18;;
46222;SDS011;31943;51.410;7.564;2023-11-22T06:18:01;6.45;;;4.50;;
46222;SDS011;31943;51.410;7.564;2023-11-22T06:20:28;5.45;;;3.80;;
46222;SDS011;31943;51.410;7.564;2023-11-22T06:22:56;7.00;;;4.20;;
46222;SDS011;31943;51.410;7.564;2023-11-22T06:25:21;5.35;;;4.40;;
46222;SDS011;31943;51.410;7.564;2023-11-22T06:27:49;5.32;;;3.60;;
46222;SDS011;31943;51.410;7.564;2023-11-22T06:30:17;4.43;;;3.67;;
46222;SDS011;31943;51.410;7.564;2023-11-22T06:32:43;4.45;;;3.63;;
46222;SDS011;31943;51.410;7.564;2023-11-22T06:35:09;4.88;;;3.70;;
46222;SDS011;31943;51.410;7.564;2023-11-22T06:37:36;7.53;;;4.50;;
46222;SDS011;31943;51.410;7.564;2023-11-22T06:42:51;5.70;;;3.90;;
46222;SDS011;31943;51.410;7.564;2023-11-22T06:45:17;6.85;;;4.47;;
46222;SDS011;31943;51.410;7.564;2023-11-22T06:47:43;5.32;;;4.70;;
46222;SDS011;31943;51.410;7.564;2023-11-22T06:50:10;6.88;;;4.80;;
46222;SDS011;31943;51.410;7.564;2023-11-22T06:52:36;4.65;;;3.55;;
46222;SDS011;31943;51.410;7.564;2023-11-22T06:55:03;5.65;;;4.07;;
46222;SDS011;31943;51.410;7.564;2023-11-22T07:09:23;5.60;;;3.85;;
46222;SDS011;31943;51.410;7.564;2023-11-22T07:14:33;6.68;;;3.97;;
46222;SDS011;31943;51.410;7.564;2023-11-22T07:17:06;6.68;;;4.47;;
46222;SDS011;31943;51.410;7.564;2023-11-22T07:19:40;7.55;;;4.55;;
46222;SDS011;31943;51.410;7.564;2023-11-22T07:22:38;5.95;;;4.60;;
46222;SDS011;31943;51.410;7.564;2023-11-22T07:25:04;5.82;;;4.53;;
46222;SDS011;31943;51.410;7.564;2023-11-22T07:27:32;6.05;;;4.65;;
46222;SDS011;31943;51.410;7.564;2023-11-22T07:30:02;16.00;;;4.95;;
46222;SDS011;31943;51.410;7.564;2023-11-22T07:32:28;5.50;;;4.03;;
46222;SDS011;31943;51.410;7.564;2023-11-22T07:34:56;4.93;;;4.22;;
46222;SDS011;31943;51.410;7.564;2023-11-22T07:37:23;9.38;;;4.78;;
46222;SDS011;31943;51.410;7.564;2023-11-22T07:39:50;10.43;;;4.70;;
46222;SDS011;31943;51.410;7.564;2023-11-22T07:42:16;5.78;;;4.30;;
46222;SDS011;31943;51.410;7.564;2023-11-22T07:44:42;6.00;;;4.80;;
46222;SDS011;31943;51.410;7.564;2023-11-22T07:47:08;5.75;;;4.88;;
46222;SDS011;31943;51.410;7.564;2023-11-22T07:49:45;6.05;;;4.90;;
46222;SDS011;31943;51.410;7.564;2023-11-22T07:52:12;11.80;;;4.88;;
46222;SDS011;31943;51.410;7.564;2023-11-22T07:54:38;6.20;;;4.68;;
46222;SDS011;31943;51.410;7.564;2023-11-22T07:57:04;6.15;;;5.10;;
46222;SDS011;31943;51.410;7.564;2023-11-22T07:59:30;6.15;;;4.82;;
46222;SDS011;31943;51.410;7.564;2023-11-22T08:01:55;7.80;;;5.55;;
46222;SDS011;31943;51.410;7.564;2023-11-22T08:04:21;6.78;;;5.47;;
46222;SDS011;31943;51.410;7.564;2023-11-22T08:06:47;8.65;;;4.45;;
46222;SDS011;31943;51.410;7.564;2023-11-22T08:09:14;6.30;;;4.88;;
46222;SDS011;31943;51.410;7.564;2023-11-22T08:11:39;9.15;;;4.65;;
46222;SDS011;31943;51.410;7.564;2023-11-22T08:14:05;9.73;;;5.30;;
46222;SDS011;31943;51.410;7.564;2023-11-22T08:16:31;6.85;;;5.35;;
46222;SDS011;31943;51.410;7.564;2023-11-22T08:18:56;6.07;;;5.25;;
46222;SDS011;31943;51.410;7.564;2023-11-22T08:21:22;7.78;;;5.07;;
46222;SDS011;31943;51.410;7.564;2023-11-22T08:23:48;9.45;;;5.97;;
46222;SDS011;31943;51.410;7.564;2023-11-22T08:26:15;7.65;;;6.03;;
46222;SDS011;31943;51.410;7.564;2023-11-22T08:28:41;7.40;;;5.72;;
46222;SDS011;31943;51.410;7.564;2023-11-22T08:31:07;7.97;;;5.80;;
46222;SDS011;31943;51.410;7.564;2023-11-22T08:33:33;7.35;;;6.03;;
46222;SDS011;31943;51.410;7.564;2023-11-22T08:35:59;9.38;;;6.20;;
46222;SDS011;31943;51.410;7.564;2023-11-22T08:38:25;7.10;;;6.13;;
46222;SDS011;31943;51.410;7.564;2023-11-22T08:40:50;7.68;;;6.75;;
46222;SDS011;31943;51.410;7.564;2023-11-22T08:43:18;7.72;;;5.75;;
46222;SDS011;31943;51.410;7.564;2023-11-22T08:45:43;11.40;;;7.18;;
46222;SDS011;31943;51.410;7.564;2023-11-22T08:48:10;7.72;;;6.90;;
46222;SDS011;31943;51.410;7.564;2023-11-22T08:50:36;11.32;;;7.40;;
46222;SDS011;31943;51.410;7.564;2023-11-22T08:53:01;8.52;;;6.82;;
46222;SDS011;31943;51.410;7.564;2023-11-22T08:55:29;10.38;;;7.05;;
46222;SDS011;31943;51.410;7.564;2023-11-22T08:57:55;12.52;;;7.78;;
46222;SDS011;31943;51.410;7.564;2023-11-22T09:00:30;12.30;;;8.07;;
46222;SDS011;31943;51.410;7.564;2023-11-22T09:02:58;11.00;;;7.53;;
46222;SDS011;31943;51.410;7.564;2023-11-22T09:05:24;11.18;;;7.22;;
46222;SDS011;31943;51.410;7.564;2023-11-22T09:07:50;10.23;;;7.20;;
46222;SDS011;31943;51.410;7.564;2023-11-22T09:10:16;9.35;;;7.18;;
46222;SDS011;31943;51.410;7.564;2023-11-22T09:12:43;11.95;;;7.13;;
46222;SDS011;31943;51.410;7.564;2023-11-22T09:15:10;11.40;;;7.68;;
46222;SDS011;31943;51.410;7.564;2023-11-22T09:17:38;10.07;;;7.57;;
46222;SDS011;31943;51.410;7.564;2023-11-22T09:20:05;11.07;;;6.53;;
46222;SDS011;31943;51.410;7.564;2023-11-22T09:22:34;9.57;;;6.35;;
46222;SDS011;31943;51.410;7.564;2023-11-22T09:25:00;9.63;;;6.53;;
46222;SDS011;31943;51.410;7.564;2023-11-22T09:27:26;9.52;;;7.13;;
46222;SDS011;31943;51.410;7.564;2023-11-22T09:29:51;11.60;;;7.18;;
46222;SDS011;31943;51.410;7.564;2023-11-22T09:32:18;12.27;;;8.07;;
46222;SDS011;31943;51.410;7.564;2023-11-22T09:34:45;13.63;;;8.25;;
46222;SDS011;31943;51.410;7.564;2023-11-22T09:37:11;10.20;;;7.03;;
46222;SDS011;31943;51.410;7.564;2023-11-22T09:39:38;9.27;;;7.07;;
46222;SDS011;31943;51.410;7.564;2023-11-22T09:42:04;9.52;;;6.97;;
46222;SDS011;31943;51.410;7.564;2023-11-22T09:44:31;8.02;;;6.10;;
46222;SDS011;31943;51.410;7.564;2023-11-22T09:46:57;7.97;;;6.13;;
46222;SDS011;31943;51.410;7.564;2023-11-22T09:49:24;9.80;;;6.65;;
46222;SDS011;31943;51.410;7.564;2023-11-22T09:52:05;8.48;;;6.38;;
46222;SDS011;31943;51.410;7.564;2023-11-22T09:54:35;7.72;;;6.28;;
46222;SDS011;31943;51.410;7.564;2023-11-22T09:57:03;8.45;;;6.38;;
46222;SDS011;31943;51.410;7.564;2023-11-22T09:59:29;7.13;;;5.80;;
46222;SDS011;31943;51.410;7.564;2023-11-22T10:01:56;8.43;;;6.13;;
46222;SDS011;31943;51.410;7.564;2023-11-22T10:04:22;8.00;;;5.22;;
46222;SDS011;31943;51.410;7.564;2023-11-22T10:06:48;10.65;;;5.40;;
46222;SDS011;31943;51.410;7.564;2023-11-22T10:09:16;7.32;;;5.15;;
46222;SDS011;31943;51.410;7.564;2023-11-22T10:11:42;7.13;;;5.60;;
46222;SDS011;31943;51.410;7.564;2023-11-22T10:14:08;8.68;;;5.03;;
46222;SDS011;31943;51.410;7.564;2023-11-22T10:16:34;6.38;;;4.68;;
46222;SDS011;31943;51.410;7.564;2023-11-22T10:19:02;6.00;;;4.63;;
46222;SDS011;31943;51.410;7.564;2023-11-22T10:21:29;5.70;;;4.63;;
46222;SDS011;31943;51.410;7.564;2023-11-22T10:23:55;7.43;;;4.80;;
46222;SDS011;31943;51.410;7.564;2023-11-22T10:26:24;7.43;;;4.72;;
46222;SDS011;31943;51.410;7.564;2023-11-22T10:28:50;7.05;;;4.10;;
46222;SDS011;31943;51.410;7.564;2023-11-22T10:31:16;8.48;;;4.18;;
46222;SDS011;31943;51.410;7.564;2023-11-22T10:33:42;4.78;;;4.20;;
46222;SDS011;31943;51.410;7.564;2023-11-22T10:36:08;6.13;;;4.30;;
46222;SDS011;31943;51.410;7.564;2023-11-22T10:38:34;5.15;;;3.97;;
46222;SDS011;31943;51.410;7.564;2023-11-22T10:41:02;4.82;;;3.70;;
46222;SDS011;31943;51.410;7.564;2023-11-22T10:43:31;5.32;;;3.88;;
46222;SDS011;31943;51.410;7.564;2023-11-22T10:45:56;7.13;;;4.50;;
46222;SDS011;31943;51.410;7.564;2023-11-22T10:48:23;5.57;;;4.03;;
46222;SDS011;31943;51.410;7.564;2023-11-22T10:50:49;7.82;;;4.03;;
46222;SDS011;31943;51.410;7.564;2023-11-22T10:53:16;5.18;;;3.90;;
46222;SDS011;31943;51.410;7.564;2023-11-22T10:55:45;5.15;;;3.95;;
46222;SDS011;31943;51.410;7.564;2023-11-22T10:58:13;7.45;;;3.67;;
46222;SDS011;31943;51.410;7.564;2023-11-22T11:00:42;5.85;;;3.50;;
46222;SDS011;31943;51.410;7.564;2023-11-22T11:03:13;6.63;;;4.45;;
46222;SDS011;31943;51.410;7.564;2023-11-22T11:05:43;5.90;;;3.70;;
46222;SDS011;31943;51.410;7.564;2023-11-22T11:08:16;5.45;;;3.70;;
46222;SDS011;31943;51.410;7.564;2023-11-22T11:10:43;4.80;;;4.13;;
46222;SDS011;31943;51.410;7.564;2023-11-22T11:13:10;4.85;;;4.03;;
46222;SDS011;31943;51.410;7.564;2023-11-22T11:15:36;5.75;;;3.90;;
46222;SDS011;31943;51.410;7.564;2023-11-22T11:18:04;5.25;;;4.05;;
46222;SDS011;31943;51.410;7.564;2023-11-22T11:20:32;4.68;;;3.80;;
46222;SDS011;31943;51.410;7.564;2023-11-22T11:23:11;6.45;;;3.78;;
46222;SDS011;31943;51.410;7.564;2023-11-22T11:25:37;7.57;;;4.10;;
46222;SDS011;31943;51.410;7.564;2023-11-22T11:28:03;7.25;;;3.83;;
46222;SDS011;31943;51.410;7.564;2023-11-22T11:30:45;4.68;;;3.75;;
46222;SDS011;31943;51.410;7.564;2023-11-22T11:33:13;6.75;;;3.92;;
46222;SDS011;31943;51.410;7.564;2023-11-22T11:35:41;4.82;;;3.72;;
46222;SDS011;31943;51.410;7.564;2023-11-22T11:38:12;5.82;;;3.85;;
46222;SDS011;31943;51.410;7.564;2023-11-22T11:40:38;5.65;;;4.00;;
46222;SDS011;31943;51.410;7.564;2023-11-22T11:43:09;5.10;;;3.33;;
46222;SDS011;31943;51.410;7.564;2023-11-22T11:45:36;3.85;;;3.20;;
46222;SDS011;31943;51.410;7.564;2023-11-22T11:48:03;4.85;;;3.50;;
46222;SDS011;31943;51.410;7.564;2023-11-22T11:50:32;4.88;;;3.42;;
46222;SDS011;31943;51.410;7.564;2023-11-22T11:52:58;4.45;;;3.53;;
46222;SDS011;31943;51.410;7.564;2023-11-22T11:55:24;5.43;;;3.17;;
46222;SDS011;31943;51.410;7.564;2023-11-22T11:57:53;4.32;;;3.45;;
46222;SDS011;31943;51.410;7.564;2023-11-22T12:00:21;5.28;;;3.67;;
46222;SDS011;31943;51.410;7.564;2023-11-22T12:02:48;3.65;;;3.13;;
46222;SDS011;31943;51.410;7.564;2023-11-22T12:05:14;4.47;;;3.42;;
46222;SDS011;31943;51.410;7.564;2023-11-22T12:07:41;4.72;;;3.20;;
46222;SDS011;31943;51.410;7.564;2023-11-22T12:10:07;4.72;;;3.33;;
46222;SDS011;31943;51.410;7.564;2023-11-22T12:12:34;4.57;;;3.67;;
46222;SDS011;31943;51.410;7.564;2023-11-22T12:15:03;5.97;;;3.83;;
46222;SDS011;31943;51.410;7.564;2023-11-22T12:17:30;6.15;;;3.13;;
46222;SDS011;31943;51.410;7.564;2023-11-22T12:20:08;4.28;;;3.53;;
46222;SDS011;31943;51.410;7.564;2023-11-22T12:22:35;5.57;;;3.35;;
46222;SDS011;31943;51.410;7.564;2023-11-22T12:25:04;7.20;;;5.00;;
46222;SDS011;31943;51.410;7.564;2023-11-22T12:27:30;7.38;;;4.55;;
46222;SDS011;31943;51.410;7.564;2023-11-22T12:29:56;6.85;;;4.45;;
46222;SDS011;31943;51.410;7.564;2023-11-22T12:32:23;5.13;;;3.58;;
46222;SDS011;31943;51.410;7.564;2023-11-22T12:34:49;4.47;;;3.55;;
46222;SDS011;31943;51.410;7.564;2023-11-22T12:37:16;5.75;;;4.50;;
46222;SDS011;31943;51.410;7.564;2023-11-22T12:39:42;6.47;;;4.63;;
46222;SDS011;31943;51.410;7.564;2023-11-22T12:42:12;5.35;;;3.53;;
46222;SDS011;31943;51.410;7.564;2023-11-22T12:44:47;4.32;;;3.15;;
46222;SDS011;31943;51.410;7.564;2023-11-22T12:47:14;4.38;;;3.50;;
46222;SDS011;31943;51.410;7.564;2023-11-22T12:49:43;5.47;;;3.63;;
46222;SDS011;31943;51.410;7.564;2023-11-22T12:52:09;4.10;;;3.40;;
46222;SDS011;31943;51.410;7.564;2023-11-22T12:54:35;4.78;;;3.60;;
46222;SDS011;31943;51.410;7.564;2023-11-22T12:57:02;6.00;;;3.47;;
46222;SDS011;31943;51.410;7.564;2023-11-22T12:59:29;4.55;;;3.35;;
46222;SDS011;31943;51.410;7.564;2023-11-22T13:01:55;7.03;;;3.70;;
46222;SDS011;31943;51.410;7.564;2023-11-22T13:04:25;5.97;;;3.95;;
46222;SDS011;31943;51.410;7.564;2023-11-22T13:06:51;6.05;;;3.40;;
46222;SDS011;31943;51.410;7.564;2023-11-22T13:09:16;6.78;;;3.90;;
46222;SDS011;31943;51.410;7.564;2023-11-22T13:11:42;5.57;;;3.03;;
46222;SDS011;31943;51.410;7.564;2023-11-22T13:14:08;3.97;;;2.75;;
46222;SDS011;31943;51.410;7.564;2023-11-22T13:16:35;3.65;;;2.40;;
46222;SDS011;31943;51.410;7.564;2023-11-22T13:19:01;4.20;;;2.88;;
46222;SDS011;31943;51.410;7.564;2023-11-22T13:21:27;6.35;;;2.88;;
46222;SDS011;31943;51.410;7.564;2023-11-22T13:23:53;4.97;;;2.95;;
46222;SDS011;31943;51.410;7.564;2023-11-22T13:26:19;6.05;;;2.55;;
46222;SDS011;31943;51.410;7.564;2023-11-22T13:28:45;7.03;;;3.03;;
46222;SDS011;31943;51.410;7.564;2023-11-22T13:31:10;5.35;;;2.70;;
46222;SDS011;31943;51.410;7.564;2023-11-22T13:33:45;7.22;;;2.50;;
46222;SDS011;31943;51.410;7.564;2023-11-22T13:36:11;6.15;;;2.53;;
46222;SDS011;31943;51.410;7.564;2023-11-22T13:38:38;5.40;;;2.40;;
46222;SDS011;31943;51.410;7.564;2023-11-22T13:41:03;3.40;;;2.10;;
46222;SDS011;31943;51.410;7.564;2023-11-22T13:43:31;2.83;;;1.95;;
46222;SDS011;31943;51.410;7.564;2023-11-22T13:45:57;2.42;;;1.80;;
46222;SDS011;31943;51.410;7.564;2023-11-22T13:48:23;3.05;;;1.90;;
46222;SDS011;31943;51.410;7.564;2023-11-22T13:50:52;3.78;;;2.10;;
46222;SDS011;31943;51.410;7.564;2023-11-22T13:53:18;5.22;;;1.80;;
46222;SDS011;31943;51.410;7.564;2023-11-22T13:55:44;4.97;;;2.33;;
46222;SDS011;31943;51.410;7.564;2023-11-22T13:58:11;5.38;;;2.70;;
46222;SDS011;31943;51.410;7.564;2023-11-22T14:00:38;3.00;;;2.33;;
46222;SDS011;31943;51.410;7.564;2023-11-22T14:03:09;5.23;;;2.97;;
46222;SDS011;31943;51.410;7.564;2023-11-22T14:05:36;5.68;;;3.55;;
46222;SDS011;31943;51.410;7.564;2023-11-22T14:08:07;5.75;;;2.70;;
46222;SDS011;31943;51.410;7.564;2023-11-22T14:10:33;3.85;;;2.65;;
46222;SDS011;31943;51.410;7.564;2023-11-22T14:12:59;4.15;;;2.50;;
46222;SDS011;31943;51.410;7.564;2023-11-22T14:15:26;4.43;;;2.35;;
46222;SDS011;31943;51.410;7.564;2023-11-22T14:17:53;4.43;;;2.83;;
46222;SDS011;31943;51.410;7.564;2023-11-22T14:20:20;3.67;;;2.85;;
46222;SDS011;31943;51.410;7.564;2023-11-22T14:22:45;4.88;;;2.33;;
46222;SDS011;31943;51.410;7.564;2023-11-22T14:25:12;5.88;;;2.83;;
46222;SDS011;31943;51.410;7.564;2023-11-22T14:27:39;4.18;;;2.22;;
46222;SDS011;31943;51.410;7.564;2023-11-22T14:30:05;4.28;;;2.20;;
46222;SDS011;31943;51.410;7.564;2023-11-22T14:32:32;4.72;;;2.22;;
46222;SDS011;31943;51.410;7.564;2023-11-22T14:34:57;3.65;;;2.22;;
46222;SDS011;31943;51.410;7.564;2023-11-22T14:37:23;3.50;;;2.10;;
46222;SDS011;31943;51.410;7.564;2023-11-22T14:39:49;3.17;;;2.42;;
46222;SDS011;31943;51.410;7.564;2023-11-22T14:42:16;3.30;;;2.25;;
46222;SDS011;31943;51.410;7.564;2023-11-22T14:44:42;3.63;;;2.42;;
46222;SDS011;31943;51.410;7.564;2023-11-22T14:47:08;2.70;;;1.85;;
46222;SDS011;31943;51.410;7.564;2023-11-22T14:49:36;4.85;;;2.00;;
46222;SDS011;31943;51.410;7.564;2023-11-22T14:52:02;5.45;;;2.35;;
46222;SDS011;31943;51.410;7.564;2023-11-22T14:54:31;3.95;;;2.20;;
46222;SDS011;31943;51.410;7.564;2023-11-22T14:56:57;4.03;;;2.28;;
46222;SDS011;31943;51.410;7.564;2023-11-22T14:59:25;3.50;;;2.17;;